KCZT

Dimmit County Airport

Carrizo Springs, Texas, USA
METAR KCZT 211255Z AUTO 10005KT 10SM OVC014 19/19 A2994 RMK AO2 LTG DSNT NW
Observed Flight Rules
Feb-21 @ 12:55 UTC (13 minutes ago) Marginal Visual Flight Rules
Wind Visibility Clouds
100° at 5 knots 10 miles
  • Overcast at 1,400' AGL
Temperatures Readings
Current 19°C / 66°F
Dewpoint 19°C / 66°F
Humidity 100%
Altimeter 29.94" Hg
Pressure 1014 hPa
Elevation 183
METAR KCZT 211255Z AUTO 10005KT 10SM OVC014 19/19 A2994 RMK AO2 LTG DSNT NW
Observed Flight Rules
Feb-21 @ 12:55 UTC
(13 minutes ago)
MVFR
Wind Visibility
100° at 5 knots 10 miles
Clouds
  • Overcast at 1,400' AGL
Temperature Dewpoint
19°C / 66°F 19°C / 66°F
Humidity Altimeter Pressure
100% 29.94" Hg 1014 hPa